Time;durP1;ratioP1;P1;durP2;ratioP2;P2;SDS_P1;SDS_P2;PMS_P1;PMS_P2;Temp;Humidity;BMP_temperature;BMP_pressure;BME280_temperature;BME280_humidity;BME280_pressure;Samples;Min_cycle;Max_cycle;Signal;HPM_P1;HPM_P2
2023/07/03 00:02:24;;;;;;;4.57;4.28;;;22.00;67.70;;;;;;5017644;28;20598;-78
2023/07/03 00:04:50;;;;;;;4.82;4.43;;;22.00;67.70;;;;;;5030933;28;20041;-78
2023/07/03 00:07:16;;;;;;;4.40;4.10;;;22.00;67.80;;;;;;5029493;28;20053;-78
2023/07/03 00:09:43;;;;;;;4.45;4.20;;;22.00;67.80;;;;;;5030969;28;20492;-78
2023/07/03 00:12:09;;;;;;;5.15;4.65;;;22.00;67.80;;;;;;5028572;28;20096;-78
2023/07/03 00:14:35;;;;;;;4.00;3.80;;;22.00;67.80;;;;;;5022425;28;21089;-78
2023/07/03 00:17:01;;;;;;;4.25;4.03;;;22.00;68.00;;;;;;5029216;28;20068;-78
2023/07/03 00:19:30;;;;;;;4.40;4.10;;;22.00;68.20;;;;;;5031348;28;20053;-78
2023/07/03 00:22:00;;;;;;;4.22;3.90;;;22.00;69.00;;;;;;5035235;28;20049;-78
2023/07/03 00:24:26;;;;;;;4.25;3.95;;;22.00;68.60;;;;;;5036676;28;20044;-79
2023/07/03 00:26:51;;;;;;;4.50;4.20;;;22.00;68.40;;;;;;5013946;28;20135;-78
2023/07/03 00:29:17;;;;;;;4.18;3.88;;;22.00;68.60;;;;;;5023893;28;20156;-78
2023/07/03 00:31:42;;;;;;;4.40;4.10;;;22.00;68.60;;;;;;5028522;28;20091;-78
2023/07/03 00:34:08;;;;;;;4.05;3.85;;;22.00;68.40;;;;;;5029880;28;20091;-78
2023/07/03 00:36:34;;;;;;;3.80;3.60;;;22.00;68.60;;;;;;5033085;28;20135;-78
2023/07/03 00:38:59;;;;;;;3.97;3.67;;;22.00;68.40;;;;;;5029220;28;20050;-78
2023/07/03 00:41:25;;;;;;;3.90;3.70;;;22.00;68.60;;;;;;5033228;28;20049;-78
2023/07/03 00:43:52;;;;;;;4.25;3.95;;;22.00;68.70;;;;;;5041232;28;21901;-78
2023/07/03 00:46:17;;;;;;;4.43;4.03;;;22.00;68.80;;;;;;5012571;28;20441;-78
2023/07/03 00:48:43;;;;;;;3.65;3.45;;;22.00;68.90;;;;;;5030096;28;20052;-78
2023/07/03 00:51:09;;;;;;;3.85;3.65;;;21.90;68.80;;;;;;5025347;28;20037;-78
2023/07/03 00:53:34;;;;;;;4.05;3.80;;;21.90;68.70;;;;;;5029440;28;20053;-78
2023/07/03 00:56:01;;;;;;;4.15;3.75;;;21.90;68.80;;;;;;5025137;28;20048;-78
2023/07/03 00:58:26;;;;;;;3.70;3.40;;;21.90;68.80;;;;;;5018018;28;20528;-78
2023/07/03 01:00:56;;;;;;;4.22;3.95;;;22.00;68.80;;;;;;5014508;28;20124;-78
2023/07/03 01:03:49;;;;;;;4.13;3.83;;;21.90;68.50;;;;;;5025105;28;20041;-78
2023/07/03 01:06:18;;;;;;;4.30;4.00;;;22.00;68.50;;;;;;5033925;28;20036;-78
2023/07/03 01:08:46;;;;;;;3.75;3.55;;;22.00;69.40;;;;;;5042237;28;20055;-78
2023/07/03 01:11:11;;;;;;;3.67;3.47;;;22.00;68.80;;;;;;5048658;28;20037;-78
2023/07/03 01:13:37;;;;;;;3.88;3.58;;;21.90;68.80;;;;;;5043209;28;20051;-78
2023/07/03 01:16:03;;;;;;;3.90;3.70;;;21.90;68.90;;;;;;5034519;28;20486;-78
2023/07/03 01:18:29;;;;;;;3.72;3.53;;;21.90;69.00;;;;;;5057732;28;20203;-78
2023/07/03 01:21:06;;;;;;;3.95;3.75;;;21.90;69.80;;;;;;5049017;28;20104;-78
2023/07/03 01:23:39;;;;;;;3.97;3.78;;;21.90;69.00;;;;;;5030211;28;20043;-78
2023/07/03 01:26:04;;;;;;;3.88;3.67;;;21.90;69.10;;;;;;5031333;28;20510;-78
2023/07/03 01:28:30;;;;;;;3.38;3.17;;;21.90;69.50;;;;;;5022812;28;20108;-78
2023/07/03 01:30:55;;;;;;;3.50;3.30;;;21.90;69.30;;;;;;5044910;28;20394;-78
2023/07/03 01:33:25;;;;;;;3.45;3.20;;;21.90;69.20;;;;;;5027398;28;20033;-78
2023/07/03 01:35:50;;;;;;;3.30;3.10;;;21.90;69.20;;;;;;5012848;28;20048;-78
2023/07/03 01:38:16;;;;;;;3.70;3.50;;;21.90;69.20;;;;;;5030165;28;20415;-78
2023/07/03 01:40:42;;;;;;;3.47;3.28;;;21.90;69.10;;;;;;5052100;28;20052;-78
2023/07/03 01:43:07;;;;;;;3.58;3.38;;;21.90;69.10;;;;;;5029740;28;20124;-78
2023/07/03 01:45:34;;;;;;;3.25;2.92;;;21.90;69.00;;;;;;5014990;28;20056;-78
2023/07/03 01:47:59;;;;;;;3.70;3.47;;;21.90;69.20;;;;;;5027518;28;20041;-78
2023/07/03 01:50:27;;;;;;;11.13;3.85;;;21.90;69.20;;;;;;5014235;28;20082;-78
2023/07/03 01:52:58;;;;;;;3.55;3.25;;;21.90;69.40;;;;;;5045398;28;20049;-78
2023/07/03 01:55:35;;;;;;;3.50;3.30;;;21.90;69.40;;;;;;5057359;28;20045;-78
2023/07/03 01:58:06;;;;;;;3.03;2.83;;;21.90;69.50;;;;;;5043908;28;20183;-79
2023/07/03 02:00:41;;;;;;;2.80;2.70;;;21.90;69.50;;;;;;5024793;28;20045;-78
2023/07/03 02:03:10;;;;;;;3.20;3.00;;;21.90;69.40;;;;;;5042755;28;20110;-78
2023/07/03 02:05:38;;;;;;;3.20;3.00;;;21.90;69.50;;;;;;5028928;28;20100;-78
2023/07/03 02:08:04;;;;;;;3.40;3.20;;;21.90;69.60;;;;;;5029622;28;20046;-78
2023/07/03 02:10:29;;;;;;;3.20;3.00;;;21.90;69.40;;;;;;5008014;28;20049;-78
2023/07/03 02:12:55;;;;;;;3.60;3.40;;;21.90;69.60;;;;;;5027813;28;20402;-78
2023/07/03 02:15:20;;;;;;;3.03;2.92;;;21.90;69.60;;;;;;5022473;28;20052;-78
2023/07/03 02:17:46;;;;;;;3.08;2.88;;;21.90;69.60;;;;;;5036273;28;20558;-78
2023/07/03 02:20:14;;;;;;;3.22;3.03;;;21.90;69.50;;;;;;5048847;28;23079;-78
2023/07/03 02:22:42;;;;;;;2.90;2.70;;;21.90;69.60;;;;;;5045442;28;20090;-78
2023/07/03 02:25:09;;;;;;;3.20;3.00;;;21.90;69.60;;;;;;5033804;28;20145;-78
2023/07/03 02:27:34;;;;;;;3.00;2.85;;;21.90;69.60;;;;;;5020226;28;20086;-78
2023/07/03 02:30:00;;;;;;;3.25;3.05;;;21.90;69.60;;;;;;5026215;28;20052;-78
2023/07/03 02:32:37;;;;;;;3.05;2.85;;;21.90;69.80;;;;;;5023721;28;20095;-77
2023/07/03 02:35:03;;;;;;;2.95;2.83;;;21.90;69.50;;;;;;5014979;28;20041;-78
2023/07/03 02:37:29;;;;;;;2.85;2.70;;;21.90;69.40;;;;;;5033356;28;20061;-78
2023/07/03 02:39:55;;;;;;;3.03;2.83;;;21.90;69.60;;;;;;5033127;28;20065;-78
2023/07/03 02:42:21;;;;;;;3.78;2.92;;;21.90;69.50;;;;;;5028663;28;20498;-78
2023/07/03 02:44:46;;;;;;;3.70;2.67;;;21.90;70.30;;;;;;5045996;28;20518;-78
2023/07/03 02:47:12;;;;;;;3.15;2.92;;;21.90;69.60;;;;;;5014336;28;20046;-78
2023/07/03 02:49:37;;;;;;;2.75;2.65;;;21.90;69.60;;;;;;5031203;28;20041;-78
2023/07/03 02:52:03;;;;;;;2.65;2.55;;;21.90;69.50;;;;;;5031985;28;20402;-78
2023/07/03 02:54:29;;;;;;;2.88;2.65;;;21.90;69.50;;;;;;5033494;28;20047;-78
2023/07/03 02:56:54;;;;;;;3.15;2.95;;;21.90;69.30;;;;;;5025233;28;20075;-78
2023/07/03 02:59:20;;;;;;;2.40;2.30;;;21.90;69.30;;;;;;5046558;28;20123;-78
2023/07/03 03:01:45;;;;;;;2.28;2.17;;;21.90;69.30;;;;;;5032028;28;20041;-78
2023/07/03 03:04:11;;;;;;;2.65;2.55;;;21.90;69.20;;;;;;5044170;28;20042;-78
2023/07/03 03:06:36;;;;;;;2.53;2.42;;;21.90;69.20;;;;;;5029495;28;20041;-78
2023/07/03 03:09:04;;;;;;;2.38;2.28;;;21.90;70.00;;;;;;5026061;28;20056;-78
2023/07/03 03:11:30;;;;;;;2.72;2.53;;;21.90;69.20;;;;;;5032645;28;20048;-78
2023/07/03 03:13:56;;;;;;;2.40;2.30;;;21.90;69.20;;;;;;5022956;28;20045;-78
2023/07/03 03:16:21;;;;;;;2.78;2.58;;;21.90;70.00;;;;;;5029842;28;20045;-78
2023/07/03 03:18:47;;;;;;;2.45;2.35;;;21.90;69.20;;;;;;5033861;28;20452;-78
2023/07/03 03:21:15;;;;;;;2.35;2.25;;;21.90;69.20;;;;;;5028076;28;20379;-78
2023/07/03 03:23:40;;;;;;;2.40;2.30;;;21.90;69.10;;;;;;5030741;28;20071;-78
2023/07/03 03:26:06;;;;;;;2.08;1.98;;;21.90;69.00;;;;;;5026222;28;20456;-78
2023/07/03 03:28:32;;;;;;;2.60;2.40;;;21.90;69.10;;;;;;5027358;28;20634;-78
2023/07/03 03:30:58;;;;;;;2.08;1.98;;;21.90;69.00;;;;;;5032431;28;20136;-78
2023/07/03 03:33:23;;;;;;;2.47;2.38;;;21.90;68.90;;;;;;5029543;28;20123;-78
2023/07/03 03:35:49;;;;;;;2.10;2.00;;;21.90;69.00;;;;;;5028362;28;20057;-78
2023/07/03 03:38:14;;;;;;;2.15;2.05;;;21.90;69.00;;;;;;5025780;28;20500;-78
2023/07/03 03:41:03;;;;;;;2.05;1.90;;;21.90;68.90;;;;;;5028268;28;20067;-78
2023/07/03 03:43:28;;;;;;;1.90;1.80;;;21.90;68.90;;;;;;5026242;28;20037;-77
2023/07/03 03:45:58;;;;;;;2.22;2.13;;;21.90;69.10;;;;;;5018457;28;20045;-77
2023/07/03 03:48:25;;;;;;;2.38;2.28;;;21.90;69.20;;;;;;5031792;28;20494;-77
2023/07/03 03:50:50;;;;;;;2.20;2.10;;;21.90;69.00;;;;;;5032587;28;20056;-77
2023/07/03 03:53:16;;;;;;;2.45;2.35;;;21.90;69.00;;;;;;5031592;28;20038;-77
2023/07/03 03:55:41;;;;;;;2.00;1.90;;;21.90;69.20;;;;;;5027987;28;20045;-77
2023/07/03 03:58:09;;;;;;;2.10;2.00;;;21.90;69.20;;;;;;5031938;28;20057;-77
2023/07/03 04:00:34;;;;;;;2.25;2.15;;;21.90;69.20;;;;;;5037641;28;20047;-77
2023/07/03 04:03:00;;;;;;;2.53;2.33;;;21.90;69.20;;;;;;5028042;28;20033;-77
2023/07/03 04:05:26;;;;;;;2.20;2.10;;;21.90;69.10;;;;;;5031292;28;20403;-77
2023/07/03 04:07:51;;;;;;;2.45;1.95;;;21.90;69.20;;;;;;5026660;28;20176;-77
2023/07/03 04:10:17;;;;;;;2.08;1.98;;;21.90;69.10;;;;;;5030968;28;20037;-77
2023/07/03 04:12:42;;;;;;;1.80;1.70;;;21.90;69.20;;;;;;5030501;28;20037;-77
2023/07/03 04:15:08;;;;;;;1.92;1.73;;;21.90;69.10;;;;;;5029420;28;20572;-77
2023/07/03 04:17:34;;;;;;;1.98;1.88;;;21.90;69.10;;;;;;5030152;28;20407;-78
2023/07/03 04:19:59;;;;;;;2.03;1.92;;;21.90;69.20;;;;;;5042589;28;20510;-78
2023/07/03 04:22:26;;;;;;;2.10;2.00;;;21.90;69.10;;;;;;5024524;28;20042;-77
2023/07/03 04:24:52;;;;;;;1.92;1.83;;;21.90;69.20;;;;;;5030818;28;20049;-77
2023/07/03 04:27:18;;;;;;;2.05;1.95;;;21.90;69.10;;;;;;5028481;28;20538;-77
2023/07/03 04:29:44;;;;;;;1.80;1.70;;;21.90;69.20;;;;;;5043859;28;20573;-78
2023/07/03 04:32:10;;;;;;;1.90;1.80;;;21.90;69.20;;;;;;5027171;28;20092;-77
2023/07/03 04:34:35;;;;;;;1.77;1.67;;;21.90;69.10;;;;;;5024296;28;20542;-77
2023/07/03 04:37:03;;;;;;;2.00;1.80;;;21.90;69.10;;;;;;5030312;28;20398;-77
2023/07/03 04:39:29;;;;;;;2.03;1.92;;;21.90;69.20;;;;;;5043187;28;20041;-77
2023/07/03 04:41:59;;;;;;;2.10;2.00;;;21.90;69.20;;;;;;5027288;28;20449;-77
2023/07/03 04:44:28;;;;;;;1.52;1.50;;;21.80;69.60;;;;;;5028998;28;20430;-77
2023/07/03 04:46:57;;;;;;;1.90;1.80;;;21.90;69.40;;;;;;5026098;28;20094;-78
2023/07/03 04:49:26;;;;;;;2.15;2.05;;;21.80;69.40;;;;;;5028193;28;20053;-77
2023/07/03 04:51:52;;;;;;;2.28;1.42;;;21.80;69.00;;;;;;5014455;28;20490;-78
2023/07/03 04:54:19;;;;;;;2.20;2.10;;;21.90;69.10;;;;;;5025222;28;20041;-77
2023/07/03 04:56:48;;;;;;;1.92;1.83;;;21.90;69.10;;;;;;4749964;28;10000664;-77
2023/07/03 04:59:14;;;;;;;1.50;1.40;;;21.80;69.00;;;;;;5021878;28;20771;-77
2023/07/03 05:01:42;;;;;;;1.90;1.80;;;21.90;68.80;;;;;;5010082;28;20110;-78
2023/07/03 05:04:11;;;;;;;1.92;1.83;;;21.90;69.10;;;;;;4654731;28;10000471;-78
2023/07/03 05:06:37;;;;;;;1.83;1.73;;;21.90;68.90;;;;;;5029750;28;20116;-78
2023/07/03 05:09:03;;;;;;;1.85;1.75;;;21.90;68.70;;;;;;5027707;28;20115;-77
2023/07/03 05:11:29;;;;;;;2.05;1.80;;;21.90;68.70;;;;;;5026824;28;20117;-78
2023/07/03 05:13:55;;;;;;;1.92;1.83;;;21.90;68.60;;;;;;5000608;28;20053;-77
2023/07/03 05:16:21;;;;;;;1.65;1.58;;;21.90;68.70;;;;;;5017968;28;20580;-77
2023/07/03 05:18:46;;;;;;;1.65;1.55;;;21.90;68.50;;;;;;5029312;28;20325;-78
2023/07/03 05:21:12;;;;;;;1.90;1.80;;;21.90;68.40;;;;;;5028106;28;20044;-78
2023/07/03 05:23:37;;;;;;;1.33;1.33;;;21.90;68.40;;;;;;5035960;28;20059;-78
2023/07/03 05:26:03;;;;;;;1.42;1.33;;;21.90;68.40;;;;;;5023866;28;20469;-77
2023/07/03 05:28:30;;;;;;;1.80;1.70;;;21.90;68.50;;;;;;5013868;28;20045;-78
2023/07/03 05:30:56;;;;;;;1.40;1.40;;;21.90;68.40;;;;;;5027205;28;20114;-77
2023/07/03 05:33:21;;;;;;;1.73;1.63;;;21.90;68.60;;;;;;5025730;28;20588;-78
2023/07/03 05:35:47;;;;;;;1.65;1.55;;;21.90;68.50;;;;;;5023253;28;20046;-78
2023/07/03 05:38:13;;;;;;;1.48;1.40;;;21.90;68.50;;;;;;5023808;28;20152;-78
2023/07/03 05:40:38;;;;;;;1.65;1.55;;;21.90;68.70;;;;;;5023967;28;20142;-77
2023/07/03 05:43:04;;;;;;;1.65;1.55;;;21.90;68.40;;;;;;5007024;28;20038;-78
2023/07/03 05:45:29;;;;;;;1.50;1.50;;;21.90;68.40;;;;;;5024938;28;20411;-77
2023/07/03 05:47:55;;;;;;;1.65;1.52;;;21.90;68.40;;;;;;5045295;28;20038;-77
2023/07/03 05:50:20;;;;;;;1.73;1.63;;;21.90;68.30;;;;;;5025663;28;20177;-77
2023/07/03 05:52:46;;;;;;;1.55;1.45;;;21.90;68.20;;;;;;5039794;28;20041;-77
2023/07/03 05:55:11;;;;;;;1.65;1.55;;;21.90;68.20;;;;;;5014614;28;20099;-77
2023/07/03 05:57:37;;;;;;;1.95;1.75;;;21.90;68.20;;;;;;5029802;28;20045;-77
2023/07/03 06:00:10;;;;;;;1.60;1.50;;;21.90;68.10;;;;;;5022866;28;20060;-77
2023/07/03 06:02:35;;;;;;;1.67;1.58;;;21.90;68.20;;;;;;5041640;28;20064;-77
2023/07/03 06:05:01;;;;;;;1.70;1.60;;;21.90;68.00;;;;;;5046069;28;20025;-77
2023/07/03 06:07:26;;;;;;;1.58;1.48;;;21.90;68.10;;;;;;5025738;28;20504;-77
2023/07/03 06:09:52;;;;;;;1.80;1.70;;;21.90;68.40;;;;;;5025980;28;20037;-78
2023/07/03 06:12:18;;;;;;;1.65;1.55;;;21.90;69.10;;;;;;5031526;28;20033;-77
2023/07/03 06:14:43;;;;;;;1.48;1.40;;;21.90;68.30;;;;;;5030115;28;20083;-78
2023/07/03 06:17:09;;;;;;;1.77;1.67;;;21.90;68.20;;;;;;5046603;28;20111;-77
2023/07/03 06:19:35;;;;;;;1.80;1.70;;;21.90;67.80;;;;;;5026226;28;20565;-77
2023/07/03 06:22:00;;;;;;;1.75;1.65;;;21.80;67.80;;;;;;5029032;28;20041;-76
2023/07/03 06:24:26;;;;;;;1.77;1.67;;;21.80;67.80;;;;;;5028587;28;20426;-77
2023/07/03 06:26:51;;;;;;;2.28;2.15;;;21.90;68.30;;;;;;5039754;28;20458;-77
2023/07/03 06:29:17;;;;;;;1.83;1.73;;;21.80;68.00;;;;;;5029395;28;20045;-78
2023/07/03 06:31:43;;;;;;;1.63;1.52;;;21.80;68.20;;;;;;5029461;28;20088;-78
2023/07/03 06:34:08;;;;;;;2.60;2.40;;;21.90;67.90;;;;;;5012857;28;20309;-77
2023/07/03 06:36:34;;;;;;;2.95;2.53;;;21.90;67.70;;;;;;5028981;28;20054;-77
2023/07/03 06:39:00;;;;;;;3.08;2.50;;;21.80;67.80;;;;;;5036256;28;20561;-77
2023/07/03 06:41:28;;;;;;;3.83;2.13;;;21.80;67.80;;;;;;5027958;28;20079;-77
2023/07/03 06:43:55;;;;;;;4.05;2.65;;;21.80;67.80;;;;;;5030363;28;20048;-78
2023/07/03 06:46:20;;;;;;;2.55;2.17;;;21.80;67.80;;;;;;5024281;28;20056;-77
2023/07/03 06:48:46;;;;;;;2.15;2.03;;;21.80;67.50;;;;;;5032548;28;20049;-78
2023/07/03 06:51:12;;;;;;;2.70;2.05;;;21.80;67.50;;;;;;5030987;28;20510;-77
2023/07/03 06:53:38;;;;;;;2.47;1.92;;;21.80;67.70;;;;;;5019755;28;20266;-78
2023/07/03 06:56:04;;;;;;;2.60;2.40;;;21.70;67.70;;;;;;5022753;28;20072;-78
2023/07/03 06:58:30;;;;;;;3.63;2.25;;;21.70;67.50;;;;;;5059146;28;20123;-77
2023/07/03 07:00:56;;;;;;;2.47;2.20;;;21.70;67.50;;;;;;5035169;28;20506;-78
2023/07/03 07:03:22;;;;;;;2.55;2.30;;;21.70;67.50;;;;;;5048413;28;20551;-77
2023/07/03 07:05:48;;;;;;;3.05;2.28;;;21.80;67.50;;;;;;5046678;28;20065;-77
2023/07/03 07:08:16;;;;;;;3.45;2.35;;;21.70;67.50;;;;;;5050375;28;20053;-77
2023/07/03 07:10:43;;;;;;;2.88;2.40;;;21.80;67.50;;;;;;5045532;28;20045;-78
2023/07/03 07:13:09;;;;;;;2.78;2.55;;;21.70;67.30;;;;;;5062503;28;20044;-78
2023/07/03 07:15:36;;;;;;;4.78;2.55;;;21.80;67.30;;;;;;5046884;28;20049;-78
2023/07/03 07:18:02;;;;;;;4.20;2.17;;;21.80;67.40;;;;;;5022769;28;20134;-77
2023/07/03 07:20:27;;;;;;;3.03;2.75;;;21.80;67.20;;;;;;5045092;28;20515;-77
2023/07/03 07:22:53;;;;;;;2.40;2.20;;;21.80;67.20;;;;;;5028011;28;20514;-77
2023/07/03 07:25:18;;;;;;;2.85;2.65;;;21.80;67.40;;;;;;5019637;28;20041;-77
2023/07/03 07:27:44;;;;;;;2.90;2.60;;;21.80;67.40;;;;;;5034460;28;20080;-77
2023/07/03 07:30:10;;;;;;;2.50;2.30;;;21.80;67.50;;;;;;5030400;28;20427;-77
2023/07/03 07:32:36;;;;;;;3.45;2.40;;;21.80;67.50;;;;;;5002864;28;20038;-77
2023/07/03 07:35:01;;;;;;;2.72;2.53;;;21.90;67.10;;;;;;5046257;28;20506;-77
2023/07/03 07:37:27;;;;;;;2.90;2.15;;;21.90;67.70;;;;;;5048359;28;20041;-77
2023/07/03 07:39:52;;;;;;;3.38;2.80;;;21.90;67.30;;;;;;5052756;28;20061;-77
2023/07/03 07:42:18;;;;;;;2.70;2.38;;;21.90;67.70;;;;;;5042818;28;20041;-77
2023/07/03 07:44:47;;;;;;;2.80;2.60;;;21.90;68.00;;;;;;5045136;28;20049;-77
2023/07/03 07:47:12;;;;;;;3.10;2.70;;;21.90;69.80;;;;;;5047489;28;20072;-77
2023/07/03 07:49:39;;;;;;;2.50;2.25;;;21.80;70.40;;;;;;5046571;28;20131;-77
2023/07/03 07:52:05;;;;;;;2.53;2.20;;;21.80;70.80;;;;;;5024552;28;20040;-77
2023/07/03 07:54:31;;;;;;;3.20;2.38;;;21.80;71.50;;;;;;5046507;28;20051;-77
2023/07/03 07:56:57;;;;;;;2.55;2.10;;;21.80;70.40;;;;;;5036088;28;20037;-76
2023/07/03 07:59:22;;;;;;;2.40;1.90;;;21.90;70.30;;;;;;5050888;28;20076;-77
2023/07/03 08:01:49;;;;;;;4.13;2.50;;;21.90;69.50;;;;;;5030493;28;20059;-80
2023/07/03 08:04:15;;;;;;;3.42;2.55;;;21.90;69.20;;;;;;5043835;28;20055;-78
2023/07/03 08:06:40;;;;;;;2.65;2.45;;;21.90;69.00;;;;;;5027042;28;20045;-78
2023/07/03 08:09:06;;;;;;;2.97;2.50;;;21.80;72.10;;;;;;5025506;28;20446;-79
2023/07/03 08:11:31;;;;;;;3.58;2.42;;;21.90;70.20;;;;;;5019173;28;20041;-79
2023/07/03 08:13:57;;;;;;;3.10;2.42;;;21.90;69.60;;;;;;5023309;28;20052;-79
2023/07/03 08:16:23;;;;;;;2.70;2.50;;;21.90;71.70;;;;;;5018626;28;20037;-79
2023/07/03 08:18:48;;;;;;;2.42;2.22;;;21.90;70.10;;;;;;5029507;28;20055;-79
2023/07/03 08:21:14;;;;;;;3.05;2.65;;;21.90;69.30;;;;;;5024262;28;20072;-79
2023/07/03 08:23:39;;;;;;;3.33;2.70;;;21.90;69.50;;;;;;5005599;28;20053;-79
2023/07/03 08:26:05;;;;;;;3.03;2.53;;;21.90;68.70;;;;;;5055414;28;20053;-78
2023/07/03 08:28:30;;;;;;;3.42;2.75;;;21.90;66.90;;;;;;5034682;28;20506;-78
2023/07/03 08:30:57;;;;;;;2.53;2.33;;;21.90;67.40;;;;;;5053794;28;20063;-78
2023/07/03 08:33:23;;;;;;;2.78;2.53;;;21.90;67.50;;;;;;5035544;28;20037;-78
2023/07/03 08:35:49;;;;;;;2.70;2.45;;;22.00;66.40;;;;;;5029289;28;20045;-79
2023/07/03 08:38:14;;;;;;;3.05;2.42;;;22.00;66.10;;;;;;5024082;28;20500;-79
2023/07/03 08:40:40;;;;;;;2.78;2.58;;;22.00;65.90;;;;;;5027479;28;20076;-79
2023/07/03 08:43:09;;;;;;;4.60;2.70;;;22.00;66.60;;;;;;5029306;28;20049;-79
2023/07/03 08:45:40;;;;;;;3.15;2.70;;;22.10;68.30;;;;;;5046316;28;20825;-79
2023/07/03 08:48:25;;;;;;;3.47;2.60;;;22.00;68.00;;;;;;5038222;28;20032;-79
2023/07/03 08:50:55;;;;;;;3.20;2.67;;;21.90;68.50;;;;;;5008778;28;20046;-79
2023/07/03 08:53:24;;;;;;;3.83;2.67;;;21.90;67.80;;;;;;5032561;28;20060;-79
2023/07/03 08:56:22;;;;;;;2.80;2.60;;;21.90;69.20;;;;;;5026930;28;20052;-79
2023/07/03 08:58:54;;;;;;;4.57;2.80;;;21.90;68.40;;;;;;5019972;28;20051;-79
2023/07/03 09:01:33;;;;;;;2.80;2.60;;;21.90;68.40;;;;;;5034386;28;20152;-78
2023/07/03 09:04:25;;;;;;;3.88;2.55;;;21.90;68.30;;;;;;5039546;28;20124;-78
2023/07/03 09:07:01;;;;;;;3.55;2.60;;;21.90;68.30;;;;;;5027542;28;20045;-79
2023/07/03 09:09:36;;;;;;;3.97;2.65;;;22.00;68.20;;;;;;5039513;28;20125;-79
2023/07/03 09:12:21;;;;;;;3.40;2.92;;;22.00;69.00;;;;;;5033052;28;20128;-78
2023/07/03 09:14:50;;;;;;;3.30;3.00;;;22.00;68.40;;;;;;5024126;28;20104;-79
2023/07/03 09:17:16;;;;;;;3.83;2.75;;;22.00;66.50;;;;;;5033186;28;20036;-78
2023/07/03 09:19:45;;;;;;;2.60;2.40;;;22.00;66.70;;;;;;5041177;28;20058;-79
2023/07/03 09:22:25;;;;;;;3.47;2.75;;;22.00;66.60;;;;;;5042595;28;20101;-79
2023/07/03 09:24:51;;;;;;;4.10;3.20;;;21.90;66.50;;;;;;5012612;28;20046;-78
2023/07/03 09:27:22;;;;;;;3.33;2.58;;;22.00;66.10;;;;;;5046347;28;20043;-78
2023/07/03 09:29:48;;;;;;;2.90;2.70;;;22.00;64.90;;;;;;5030954;28;20149;-79
2023/07/03 09:32:27;;;;;;;3.20;2.75;;;22.00;64.10;;;;;;5037134;28;20145;-78
2023/07/03 09:35:07;;;;;;;2.92;2.38;;;22.00;67.80;;;;;;5059957;28;20103;-78
2023/07/03 09:37:36;;;;;;;2.60;2.40;;;22.00;68.60;;;;;;5031952;28;20040;-78
2023/07/03 09:40:05;;;;;;;2.92;2.47;;;22.00;66.10;;;;;;5033765;28;20060;-76
2023/07/03 09:42:32;;;;;;;2.75;2.55;;;22.00;64.20;;;;;;5040027;28;20041;-77
2023/07/03 09:44:57;;;;;;;3.03;2.25;;;22.00;67.80;;;;;;5040720;28;20065;-79
2023/07/03 09:47:26;;;;;;;3.08;2.58;;;22.00;65.50;;;;;;5028834;28;20668;-78
2023/07/03 09:49:51;;;;;;;2.67;2.03;;;22.00;66.60;;;;;;5066381;28;20414;-77
2023/07/03 09:52:17;;;;;;;3.53;2.45;;;22.00;65.30;;;;;;5062251;28;20049;-78
2023/07/03 09:54:44;;;;;;;2.97;2.78;;;22.00;65.90;;;;;;5041309;28;20037;-77
2023/07/03 09:57:26;;;;;;;3.63;2.70;;;22.00;64.60;;;;;;5029913;28;20055;-77
2023/07/03 09:59:53;;;;;;;2.97;2.60;;;22.00;64.50;;;;;;5034002;28;20677;-78
2023/07/03 10:02:22;;;;;;;4.70;2.63;;;22.10;64.30;;;;;;5033190;28;20037;-77
2023/07/03 10:04:48;;;;;;;2.60;2.40;;;22.10;63.40;;;;;;5047147;28;20182;-78
2023/07/03 10:07:15;;;;;;;6.85;2.85;;;22.10;63.00;;;;;;5067580;28;20049;-78
2023/07/03 10:09:41;;;;;;;2.60;2.40;;;22.10;62.80;;;;;;5026770;28;20215;-79
2023/07/03 10:12:16;;;;;;;2.72;2.47;;;22.10;62.70;;;;;;5014881;28;20033;-78
2023/07/03 10:14:51;;;;;;;3.00;2.70;;;22.10;62.70;;;;;;5043246;28;20032;-79
2023/07/03 10:17:18;;;;;;;2.65;2.45;;;22.10;63.30;;;;;;5072986;28;20043;-79
2023/07/03 10:19:47;;;;;;;3.33;2.72;;;22.10;63.10;;;;;;5067863;28;20032;-78
2023/07/03 10:22:12;;;;;;;2.92;2.33;;;22.10;61.40;;;;;;5031901;28;20053;-79
2023/07/03 10:24:38;;;;;;;5.18;2.95;;;22.10;61.10;;;;;;5030633;28;20050;-78
2023/07/03 10:27:04;;;;;;;3.53;2.72;;;21.90;60.20;;;;;;5015102;28;20056;-78
2023/07/03 10:29:37;;;;;;;3.92;2.67;;;21.90;62.00;;;;;;5039959;28;20076;-78
2023/07/03 10:32:14;;;;;;;3.35;2.40;;;22.00;63.60;;;;;;5048750;28;20057;-78
2023/07/03 10:35:00;;;;;;;2.95;2.50;;;22.00;64.80;;;;;;5023042;28;20482;-78
2023/07/03 10:37:26;;;;;;;2.67;2.45;;;22.10;65.90;;;;;;4993374;28;20053;-78
2023/07/03 10:40:09;;;;;;;2.83;2.28;;;22.20;64.90;;;;;;5030641;28;20410;-77
2023/07/03 10:42:38;;;;;;;2.60;2.40;;;22.30;64.30;;;;;;5031369;28;20120;-77
2023/07/03 10:45:12;;;;;;;3.47;2.08;;;22.30;64.00;;;;;;5026734;28;20049;-77
2023/07/03 10:47:46;;;;;;;2.50;2.30;;;22.30;63.80;;;;;;5031444;28;20130;-79
2023/07/03 10:50:13;;;;;;;3.65;2.20;;;22.30;64.60;;;;;;5039057;28;20049;-78
2023/07/03 10:52:48;;;;;;;5.03;2.30;;;22.40;65.10;;;;;;5042227;28;20048;-81
2023/07/03 10:55:33;;;;;;;2.20;1.88;;;22.30;63.90;;;;;;5035934;28;20026;-77
2023/07/03 10:58:33;;;;;;;5.18;2.40;;;22.30;60.90;;;;;;5043688;28;20038;-78
2023/07/03 11:01:04;;;;;;;2.10;1.90;;;22.30;63.60;;;;;;5069837;28;20052;-78
2023/07/03 11:03:55;;;;;;;3.63;1.92;;;22.40;63.40;;;;;;5039876;28;20033;-78
2023/07/03 11:06:31;;;;;;;2.97;2.22;;;22.40;63.40;;;;;;5051225;28;20052;-78
2023/07/03 11:08:58;;;;;;;2.40;2.20;;;22.50;63.50;;;;;;5052781;28;20079;-78
2023/07/03 11:12:04;;;;;;;2.45;2.13;;;22.50;63.90;;;;;;5037094;28;20036;-78
2023/07/03 11:15:06;;;;;;;2.10;1.88;;;22.60;64.30;;;;;;5037238;28;20037;-78
2023/07/03 11:17:56;;;;;;;3.25;2.08;;;22.60;64.40;;;;;;4332686;28;10000734;-77
2023/07/03 11:20:29;;;;;;;2.13;2.03;;;22.60;64.90;;;;;;5027238;28;20037;-77
2023/07/03 11:23:05;;;;;;;3.47;2.08;;;22.60;65.00;;;;;;5037046;28;20033;-76
2023/07/03 11:25:40;;;;;;;2.45;2.25;;;22.70;65.30;;;;;;5030786;28;20037;-78
2023/07/03 11:28:14;;;;;;;3.58;2.25;;;22.70;65.40;;;;;;5037315;28;20747;-77
2023/07/03 11:30:42;;;;;;;2.55;2.35;;;22.70;65.90;;;;;;5030615;28;20103;-77
2023/07/03 11:33:07;;;;;;;2.35;2.15;;;22.70;65.80;;;;;;5033352;28;20087;-77
2023/07/03 11:35:33;;;;;;;2.53;2.33;;;22.80;65.70;;;;;;5044368;28;20037;-77
2023/07/03 11:38:03;;;;;;;2.30;2.10;;;22.80;65.40;;;;;;5061732;28;20045;-77
2023/07/03 11:40:49;;;;;;;2.28;2.08;;;22.80;65.30;;;;;;5046160;28;20053;-76
2023/07/03 11:43:23;;;;;;;2.42;2.20;;;22.80;64.70;;;;;;5044515;28;20041;-78
2023/07/03 11:46:17;;;;;;;2.17;1.98;;;22.80;63.90;;;;;;5023872;28;20045;-77
2023/07/03 11:48:45;;;;;;;2.27;2.07;;;22.70;63.40;;;;;;5009116;28;20388;-78
2023/07/03 11:51:13;;;;;;;2.60;1.98;;;22.70;63.30;;;;;;5036773;28;20114;-77
2023/07/03 11:53:44;;;;;;;3.35;1.90;;;22.70;62.60;;;;;;5020709;28;20295;-77
2023/07/03 11:56:32;;;;;;;2.53;2.17;;;22.70;61.40;;;;;;5019309;28;20128;-78
2023/07/03 11:59:02;;;;;;;2.65;1.80;;;22.70;60.40;;;;;;5043596;28;20045;-79
2023/07/03 12:01:30;;;;;;;3.17;2.40;;;22.70;60.90;;;;;;5035350;28;20045;-78
2023/07/03 12:03:57;;;;;;;2.20;2.00;;;22.70;60.10;;;;;;5010595;28;20899;-78
2023/07/03 12:06:55;;;;;;;3.03;2.35;;;22.70;61.10;;;;;;5019850;28;20037;-78
2023/07/03 12:09:22;;;;;;;2.30;2.10;;;22.70;60.90;;;;;;5028550;28;20053;-79
2023/07/03 12:12:00;;;;;;;2.20;2.10;;;22.70;60.50;;;;;;5032592;28;20446;-78
2023/07/03 12:14:42;;;;;;;2.65;2.10;;;22.70;60.90;;;;;;5026318;28;20033;-78
2023/07/03 12:17:30;;;;;;;2.67;2.13;;;22.70;61.20;;;;;;5024258;28;20388;-77
2023/07/03 12:20:05;;;;;;;2.55;2.35;;;22.80;61.60;;;;;;5026925;28;20074;-78
2023/07/03 12:22:30;;;;;;;2.17;1.98;;;22.80;62.10;;;;;;5024230;28;20378;-78
2023/07/03 12:25:06;;;;;;;2.33;2.10;;;22.80;62.30;;;;;;5049556;28;20470;-78
2023/07/03 12:27:31;;;;;;;2.97;2.17;;;22.80;62.50;;;;;;5048538;28;20048;-78
2023/07/03 12:29:57;;;;;;;3.67;1.95;;;22.80;62.60;;;;;;5038972;28;20042;-79
2023/07/03 12:32:28;;;;;;;2.15;1.70;;;22.80;62.60;;;;;;5024450;28;20637;-78
2023/07/03 12:34:53;;;;;;;2.05;1.90;;;22.90;62.70;;;;;;5035396;28;20132;-79
2023/07/03 12:37:24;;;;;;;1.50;1.40;;;22.90;62.80;;;;;;5034431;28;20137;-79
2023/07/03 12:39:50;;;;;;;1.85;1.58;;;22.90;62.80;;;;;;5031659;28;20140;-78
2023/07/03 12:42:25;;;;;;;2.47;2.10;;;22.90;63.00;;;;;;5046838;28;20077;-79
2023/07/03 12:44:51;;;;;;;3.40;2.38;;;22.90;63.10;;;;;;5036659;28;20098;-81
2023/07/03 12:47:18;;;;;;;4.25;2.40;;;22.90;63.30;;;;;;5031280;28;20044;-79
2023/07/03 12:49:58;;;;;;;2.63;2.28;;;22.90;63.30;;;;;;5062371;28;20535;-78
2023/07/03 12:52:32;;;;;;;2.40;2.20;;;22.90;63.10;;;;;;5042712;28;20518;-79
2023/07/03 12:54:58;;;;;;;2.60;2.40;;;22.90;63.10;;;;;;5036892;28;20049;-78